sensor_id;sensor_type;location;lat;lon;timestamp;P1;durP1;ratioP1;P2;durP2;ratioP2
70320;SDS011;61127;55.826;37.046;2023-04-26T00:01:24;9.55;;;5.50;;
70320;SDS011;61127;55.826;37.046;2023-04-26T00:03:52;8.87;;;5.10;;
70320;SDS011;61127;55.826;37.046;2023-04-26T00:06:18;13.88;;;6.97;;
70320;SDS011;61127;55.826;37.046;2023-04-26T00:08:44;13.07;;;5.70;;
70320;SDS011;61127;55.826;37.046;2023-04-26T00:11:10;9.05;;;5.20;;
70320;SDS011;61127;55.826;37.046;2023-04-26T00:13:36;10.93;;;5.30;;
70320;SDS011;61127;55.826;37.046;2023-04-26T00:16:03;7.85;;;5.20;;
70320;SDS011;61127;55.826;37.046;2023-04-26T00:18:29;9.77;;;5.70;;
70320;SDS011;61127;55.826;37.046;2023-04-26T00:20:56;9.00;;;6.10;;
70320;SDS011;61127;55.826;37.046;2023-04-26T00:23:22;9.97;;;5.73;;
70320;SDS011;61127;55.826;37.046;2023-04-26T00:25:48;12.05;;;5.90;;
70320;SDS011;61127;55.826;37.046;2023-04-26T00:28:14;10.10;;;6.15;;
70320;SDS011;61127;55.826;37.046;2023-04-26T00:30:40;10.27;;;6.40;;
70320;SDS011;61127;55.826;37.046;2023-04-26T00:33:12;11.63;;;6.47;;
70320;SDS011;61127;55.826;37.046;2023-04-26T00:35:38;12.73;;;7.18;;
70320;SDS011;61127;55.826;37.046;2023-04-26T00:38:04;10.88;;;6.55;;
70320;SDS011;61127;55.826;37.046;2023-04-26T00:40:30;10.17;;;6.43;;
70320;SDS011;61127;55.826;37.046;2023-04-26T00:42:57;12.50;;;7.20;;
70320;SDS011;61127;55.826;37.046;2023-04-26T00:45:23;16.05;;;6.88;;
70320;SDS011;61127;55.826;37.046;2023-04-26T00:47:49;13.63;;;6.70;;
70320;SDS011;61127;55.826;37.046;2023-04-26T00:50:15;13.88;;;7.57;;
70320;SDS011;61127;55.826;37.046;2023-04-26T00:52:42;10.90;;;6.88;;
70320;SDS011;61127;55.826;37.046;2023-04-26T00:55:09;13.43;;;7.30;;
70320;SDS011;61127;55.826;37.046;2023-04-26T00:57:35;13.77;;;6.85;;
70320;SDS011;61127;55.826;37.046;2023-04-26T01:00:01;12.67;;;7.33;;
70320;SDS011;61127;55.826;37.046;2023-04-26T01:02:30;10.40;;;6.70;;
70320;SDS011;61127;55.826;37.046;2023-04-26T01:04:56;10.13;;;7.03;;
70320;SDS011;61127;55.826;37.046;2023-04-26T01:07:22;14.80;;;6.60;;
70320;SDS011;61127;55.826;37.046;2023-04-26T01:10:07;13.85;;;6.93;;
70320;SDS011;61127;55.826;37.046;2023-04-26T01:12:34;12.38;;;6.88;;
70320;SDS011;61127;55.826;37.046;2023-04-26T01:15:02;12.93;;;7.70;;
70320;SDS011;61127;55.826;37.046;2023-04-26T01:17:32;11.95;;;7.28;;
70320;SDS011;61127;55.826;37.046;2023-04-26T01:19:58;10.53;;;6.90;;
70320;SDS011;61127;55.826;37.046;2023-04-26T01:22:26;10.65;;;7.00;;
70320;SDS011;61127;55.826;37.046;2023-04-26T01:24:53;9.95;;;6.57;;
70320;SDS011;61127;55.826;37.046;2023-04-26T01:27:21;13.55;;;7.40;;
70320;SDS011;61127;55.826;37.046;2023-04-26T01:29:47;11.07;;;7.63;;
70320;SDS011;61127;55.826;37.046;2023-04-26T01:32:12;12.87;;;7.40;;
70320;SDS011;61127;55.826;37.046;2023-04-26T01:34:38;12.82;;;6.97;;
70320;SDS011;61127;55.826;37.046;2023-04-26T01:37:04;14.77;;;7.30;;
70320;SDS011;61127;55.826;37.046;2023-04-26T01:39:32;11.17;;;6.60;;
70320;SDS011;61127;55.826;37.046;2023-04-26T01:41:58;13.13;;;6.60;;
70320;SDS011;61127;55.826;37.046;2023-04-26T01:44:25;10.40;;;6.95;;
70320;SDS011;61127;55.826;37.046;2023-04-26T01:46:51;13.57;;;7.22;;
70320;SDS011;61127;55.826;37.046;2023-04-26T01:49:17;12.90;;;6.65;;
70320;SDS011;61127;55.826;37.046;2023-04-26T01:51:43;11.87;;;7.00;;
70320;SDS011;61127;55.826;37.046;2023-04-26T01:54:08;11.38;;;6.70;;
70320;SDS011;61127;55.826;37.046;2023-04-26T01:56:34;11.18;;;6.13;;
70320;SDS011;61127;55.826;37.046;2023-04-26T01:59:00;11.30;;;7.30;;
70320;SDS011;61127;55.826;37.046;2023-04-26T02:01:26;10.40;;;6.90;;
70320;SDS011;61127;55.826;37.046;2023-04-26T02:03:52;11.25;;;6.50;;
70320;SDS011;61127;55.826;37.046;2023-04-26T02:06:19;12.98;;;7.07;;
70320;SDS011;61127;55.826;37.046;2023-04-26T02:08:46;10.77;;;6.83;;
70320;SDS011;61127;55.826;37.046;2023-04-26T02:11:12;12.38;;;6.15;;
70320;SDS011;61127;55.826;37.046;2023-04-26T02:13:38;12.93;;;6.72;;
70320;SDS011;61127;55.826;37.046;2023-04-26T02:16:05;10.77;;;6.70;;
70320;SDS011;61127;55.826;37.046;2023-04-26T02:18:32;12.82;;;6.78;;
70320;SDS011;61127;55.826;37.046;2023-04-26T02:20:59;12.27;;;6.93;;
70320;SDS011;61127;55.826;37.046;2023-04-26T02:23:25;13.73;;;6.57;;
70320;SDS011;61127;55.826;37.046;2023-04-26T02:25:51;14.32;;;6.97;;
70320;SDS011;61127;55.826;37.046;2023-04-26T02:28:17;11.18;;;5.93;;
70320;SDS011;61127;55.826;37.046;2023-04-26T02:30:43;13.43;;;6.83;;
70320;SDS011;61127;55.826;37.046;2023-04-26T02:33:09;11.02;;;6.25;;
70320;SDS011;61127;55.826;37.046;2023-04-26T02:35:36;11.32;;;6.20;;
70320;SDS011;61127;55.826;37.046;2023-04-26T02:38:03;9.70;;;6.20;;
70320;SDS011;61127;55.826;37.046;2023-04-26T02:40:30;12.63;;;6.57;;
70320;SDS011;61127;55.826;37.046;2023-04-26T02:42:56;11.57;;;5.73;;
70320;SDS011;61127;55.826;37.046;2023-04-26T02:45:22;13.88;;;6.40;;
70320;SDS011;61127;55.826;37.046;2023-04-26T02:47:48;10.55;;;6.63;;
70320;SDS011;61127;55.826;37.046;2023-04-26T02:50:15;12.50;;;6.30;;
70320;SDS011;61127;55.826;37.046;2023-04-26T02:52:41;11.77;;;7.07;;
70320;SDS011;61127;55.826;37.046;2023-04-26T02:55:07;11.03;;;6.77;;
70320;SDS011;61127;55.826;37.046;2023-04-26T02:57:33;11.45;;;7.15;;
70320;SDS011;61127;55.826;37.046;2023-04-26T03:00:00;13.07;;;7.18;;
70320;SDS011;61127;55.826;37.046;2023-04-26T03:02:26;9.07;;;6.07;;
70320;SDS011;61127;55.826;37.046;2023-04-26T03:04:52;10.97;;;6.60;;
70320;SDS011;61127;55.826;37.046;2023-04-26T03:07:20;11.10;;;6.95;;
70320;SDS011;61127;55.826;37.046;2023-04-26T03:09:46;8.68;;;5.82;;
70320;SDS011;61127;55.826;37.046;2023-04-26T03:12:12;12.07;;;6.22;;
70320;SDS011;61127;55.826;37.046;2023-04-26T03:14:38;9.23;;;6.37;;
70320;SDS011;61127;55.826;37.046;2023-04-26T03:17:04;11.18;;;6.20;;
70320;SDS011;61127;55.826;37.046;2023-04-26T03:19:31;10.05;;;6.00;;
70320;SDS011;61127;55.826;37.046;2023-04-26T03:21:58;11.85;;;6.47;;
70320;SDS011;61127;55.826;37.046;2023-04-26T03:24:24;11.95;;;6.15;;
70320;SDS011;61127;55.826;37.046;2023-04-26T03:26:51;7.97;;;5.53;;
70320;SDS011;61127;55.826;37.046;2023-04-26T03:29:17;9.30;;;5.80;;
70320;SDS011;61127;55.826;37.046;2023-04-26T03:31:43;10.02;;;5.32;;
70320;SDS011;61127;55.826;37.046;2023-04-26T03:34:09;9.45;;;5.65;;
70320;SDS011;61127;55.826;37.046;2023-04-26T03:36:36;11.77;;;6.00;;
70320;SDS011;61127;55.826;37.046;2023-04-26T03:39:04;9.07;;;5.30;;
70320;SDS011;61127;55.826;37.046;2023-04-26T03:41:31;9.00;;;5.65;;
70320;SDS011;61127;55.826;37.046;2023-04-26T03:44:04;8.38;;;5.28;;
70320;SDS011;61127;55.826;37.046;2023-04-26T03:46:30;10.02;;;5.85;;
70320;SDS011;61127;55.826;37.046;2023-04-26T03:48:56;9.67;;;5.47;;
70320;SDS011;61127;55.826;37.046;2023-04-26T03:51:23;8.43;;;5.25;;
70320;SDS011;61127;55.826;37.046;2023-04-26T03:53:50;8.60;;;5.53;;
70320;SDS011;61127;55.826;37.046;2023-04-26T03:56:16;8.98;;;5.60;;
70320;SDS011;61127;55.826;37.046;2023-04-26T03:58:42;9.27;;;4.77;;
70320;SDS011;61127;55.826;37.046;2023-04-26T04:01:09;7.88;;;5.00;;
70320;SDS011;61127;55.826;37.046;2023-04-26T04:03:35;8.07;;;4.80;;
70320;SDS011;61127;55.826;37.046;2023-04-26T04:06:02;9.13;;;5.05;;
70320;SDS011;61127;55.826;37.046;2023-04-26T04:08:28;7.15;;;4.40;;
70320;SDS011;61127;55.826;37.046;2023-04-26T04:10:54;7.20;;;4.47;;
70320;SDS011;61127;55.826;37.046;2023-04-26T04:13:21;7.55;;;4.72;;
70320;SDS011;61127;55.826;37.046;2023-04-26T04:15:48;6.80;;;4.32;;
70320;SDS011;61127;55.826;37.046;2023-04-26T04:18:13;7.43;;;3.80;;
70320;SDS011;61127;55.826;37.046;2023-04-26T04:20:40;8.00;;;3.90;;
70320;SDS011;61127;55.826;37.046;2023-04-26T04:23:07;6.90;;;3.90;;
70320;SDS011;61127;55.826;37.046;2023-04-26T04:25:35;6.00;;;3.83;;
70320;SDS011;61127;55.826;37.046;2023-04-26T04:28:05;5.65;;;3.28;;
70320;SDS011;61127;55.826;37.046;2023-04-26T04:30:32;5.80;;;3.38;;
70320;SDS011;61127;55.826;37.046;2023-04-26T04:32:59;7.10;;;3.60;;
70320;SDS011;61127;55.826;37.046;2023-04-26T04:35:25;6.22;;;3.45;;
70320;SDS011;61127;55.826;37.046;2023-04-26T04:37:54;5.85;;;3.50;;
70320;SDS011;61127;55.826;37.046;2023-04-26T04:40:24;6.65;;;2.95;;
70320;SDS011;61127;55.826;37.046;2023-04-26T04:42:51;5.83;;;3.13;;
70320;SDS011;61127;55.826;37.046;2023-04-26T04:45:19;5.85;;;2.97;;
70320;SDS011;61127;55.826;37.046;2023-04-26T04:47:47;5.00;;;2.90;;
70320;SDS011;61127;55.826;37.046;2023-04-26T04:50:13;3.88;;;2.80;;
70320;SDS011;61127;55.826;37.046;2023-04-26T04:52:40;4.97;;;2.90;;
70320;SDS011;61127;55.826;37.046;2023-04-26T04:55:07;4.90;;;2.73;;
70320;SDS011;61127;55.826;37.046;2023-04-26T04:57:35;6.05;;;3.53;;
70320;SDS011;61127;55.826;37.046;2023-04-26T05:00:02;6.18;;;3.38;;
70320;SDS011;61127;55.826;37.046;2023-04-26T05:02:37;5.07;;;2.80;;
70320;SDS011;61127;55.826;37.046;2023-04-26T05:05:04;5.95;;;3.40;;
70320;SDS011;61127;55.826;37.046;2023-04-26T05:07:31;6.93;;;3.27;;
70320;SDS011;61127;55.826;37.046;2023-04-26T05:09:57;4.93;;;3.50;;
70320;SDS011;61127;55.826;37.046;2023-04-26T05:12:24;6.90;;;3.20;;
70320;SDS011;61127;55.826;37.046;2023-04-26T05:14:51;7.05;;;3.40;;
70320;SDS011;61127;55.826;37.046;2023-04-26T05:17:17;8.20;;;3.60;;
70320;SDS011;61127;55.826;37.046;2023-04-26T05:19:44;5.35;;;3.03;;
70320;SDS011;61127;55.826;37.046;2023-04-26T05:22:10;6.35;;;3.40;;
70320;SDS011;61127;55.826;37.046;2023-04-26T05:24:45;5.28;;;3.25;;
70320;SDS011;61127;55.826;37.046;2023-04-26T05:27:11;5.05;;;3.45;;
70320;SDS011;61127;55.826;37.046;2023-04-26T05:29:53;4.97;;;3.47;;
70320;SDS011;61127;55.826;37.046;2023-04-26T05:32:38;6.30;;;3.50;;
70320;SDS011;61127;55.826;37.046;2023-04-26T05:35:15;5.97;;;3.65;;
70320;SDS011;61127;55.826;37.046;2023-04-26T05:37:40;6.53;;;3.50;;
70320;SDS011;61127;55.826;37.046;2023-04-26T05:40:07;6.47;;;3.80;;
70320;SDS011;61127;55.826;37.046;2023-04-26T05:42:35;6.47;;;3.72;;
70320;SDS011;61127;55.826;37.046;2023-04-26T05:45:01;4.95;;;3.00;;
70320;SDS011;61127;55.826;37.046;2023-04-26T05:47:29;6.53;;;3.50;;
70320;SDS011;61127;55.826;37.046;2023-04-26T05:49:55;5.53;;;3.42;;
70320;SDS011;61127;55.826;37.046;2023-04-26T05:52:21;5.57;;;3.70;;
70320;SDS011;61127;55.826;37.046;2023-04-26T05:54:48;6.13;;;3.47;;
70320;SDS011;61127;55.826;37.046;2023-04-26T05:57:14;6.50;;;4.30;;
70320;SDS011;61127;55.826;37.046;2023-04-26T05:59:40;4.45;;;3.20;;
70320;SDS011;61127;55.826;37.046;2023-04-26T06:02:06;4.20;;;3.05;;
70320;SDS011;61127;55.826;37.046;2023-04-26T06:04:32;4.70;;;2.97;;
70320;SDS011;61127;55.826;37.046;2023-04-26T06:07:06;4.13;;;2.63;;
70320;SDS011;61127;55.826;37.046;2023-04-26T06:09:32;3.55;;;2.40;;
70320;SDS011;61127;55.826;37.046;2023-04-26T06:11:58;6.07;;;3.17;;
70320;SDS011;61127;55.826;37.046;2023-04-26T06:14:24;7.40;;;3.40;;
70320;SDS011;61127;55.826;37.046;2023-04-26T06:16:51;6.47;;;3.10;;
70320;SDS011;61127;55.826;37.046;2023-04-26T06:19:17;3.95;;;2.80;;
70320;SDS011;61127;55.826;37.046;2023-04-26T06:21:43;4.88;;;2.97;;
70320;SDS011;61127;55.826;37.046;2023-04-26T06:24:09;4.53;;;2.80;;
70320;SDS011;61127;55.826;37.046;2023-04-26T06:26:36;4.97;;;2.88;;
70320;SDS011;61127;55.826;37.046;2023-04-26T06:29:02;3.45;;;2.40;;
70320;SDS011;61127;55.826;37.046;2023-04-26T06:31:29;2.97;;;2.25;;
70320;SDS011;61127;55.826;37.046;2023-04-26T06:33:56;3.97;;;2.60;;
70320;SDS011;61127;55.826;37.046;2023-04-26T06:36:24;5.17;;;3.40;;
70320;SDS011;61127;55.826;37.046;2023-04-26T06:38:50;5.75;;;3.88;;
70320;SDS011;61127;55.826;37.046;2023-04-26T06:41:16;6.60;;;3.85;;
70320;SDS011;61127;55.826;37.046;2023-04-26T06:43:47;7.72;;;3.88;;
70320;SDS011;61127;55.826;37.046;2023-04-26T06:46:20;5.17;;;3.60;;
70320;SDS011;61127;55.826;37.046;2023-04-26T06:48:53;6.45;;;3.22;;
70320;SDS011;61127;55.826;37.046;2023-04-26T06:51:20;4.72;;;3.45;;
70320;SDS011;61127;55.826;37.046;2023-04-26T06:53:46;3.60;;;2.42;;
70320;SDS011;61127;55.826;37.046;2023-04-26T06:56:12;3.60;;;2.53;;
70320;SDS011;61127;55.826;37.046;2023-04-26T06:58:38;3.47;;;2.58;;
70320;SDS011;61127;55.826;37.046;2023-04-26T07:01:04;3.78;;;2.63;;
70320;SDS011;61127;55.826;37.046;2023-04-26T07:03:33;6.88;;;3.10;;
70320;SDS011;61127;55.826;37.046;2023-04-26T07:05:59;4.03;;;2.90;;
70320;SDS011;61127;55.826;37.046;2023-04-26T07:08:24;4.93;;;3.15;;
70320;SDS011;61127;55.826;37.046;2023-04-26T07:10:51;4.80;;;3.20;;
70320;SDS011;61127;55.826;37.046;2023-04-26T07:13:17;4.57;;;3.37;;
70320;SDS011;61127;55.826;37.046;2023-04-26T07:15:43;6.00;;;3.00;;
70320;SDS011;61127;55.826;37.046;2023-04-26T07:18:09;4.28;;;3.10;;
70320;SDS011;61127;55.826;37.046;2023-04-26T07:20:35;5.13;;;3.35;;
70320;SDS011;61127;55.826;37.046;2023-04-26T07:23:01;5.23;;;3.40;;
70320;SDS011;61127;55.826;37.046;2023-04-26T07:25:27;5.22;;;3.10;;
70320;SDS011;61127;55.826;37.046;2023-04-26T07:27:53;4.05;;;2.90;;
70320;SDS011;61127;55.826;37.046;2023-04-26T07:30:19;3.70;;;2.72;;
70320;SDS011;61127;55.826;37.046;2023-04-26T07:32:45;3.83;;;2.90;;
70320;SDS011;61127;55.826;37.046;2023-04-26T07:35:11;4.00;;;2.60;;
70320;SDS011;61127;55.826;37.046;2023-04-26T07:37:46;3.70;;;2.70;;
70320;SDS011;61127;55.826;37.046;2023-04-26T07:40:12;6.75;;;2.78;;
70320;SDS011;61127;55.826;37.046;2023-04-26T07:42:39;2.80;;;2.30;;
70320;SDS011;61127;55.826;37.046;2023-04-26T07:45:05;4.70;;;2.90;;
70320;SDS011;61127;55.826;37.046;2023-04-26T07:47:32;4.50;;;2.47;;
70320;SDS011;61127;55.826;37.046;2023-04-26T07:49:58;3.92;;;2.60;;
70320;SDS011;61127;55.826;37.046;2023-04-26T07:52:24;3.20;;;2.30;;
70320;SDS011;61127;55.826;37.046;2023-04-26T07:54:50;2.67;;;2.10;;
70320;SDS011;61127;55.826;37.046;2023-04-26T07:57:16;3.50;;;2.60;;
70320;SDS011;61127;55.826;37.046;2023-04-26T07:59:42;3.57;;;2.60;;
70320;SDS011;61127;55.826;37.046;2023-04-26T08:02:08;4.90;;;2.88;;
70320;SDS011;61127;55.826;37.046;2023-04-26T08:04:35;5.47;;;2.83;;
70320;SDS011;61127;55.826;37.046;2023-04-26T08:07:02;4.82;;;3.10;;
70320;SDS011;61127;55.826;37.046;2023-04-26T08:09:28;3.43;;;2.77;;
70320;SDS011;61127;55.826;37.046;2023-04-26T08:11:55;3.70;;;2.87;;
70320;SDS011;61127;55.826;37.046;2023-04-26T08:14:21;3.97;;;3.00;;
70320;SDS011;61127;55.826;37.046;2023-04-26T08:16:47;3.88;;;2.95;;
70320;SDS011;61127;55.826;37.046;2023-04-26T08:19:13;3.88;;;2.75;;
70320;SDS011;61127;55.826;37.046;2023-04-26T08:21:39;3.80;;;2.90;;
70320;SDS011;61127;55.826;37.046;2023-04-26T08:24:05;4.20;;;2.70;;
70320;SDS011;61127;55.826;37.046;2023-04-26T08:26:32;4.10;;;2.67;;
70320;SDS011;61127;55.826;37.046;2023-04-26T08:28:58;3.92;;;2.63;;
70320;SDS011;61127;55.826;37.046;2023-04-26T08:31:25;4.70;;;2.70;;
70320;SDS011;61127;55.826;37.046;2023-04-26T08:33:51;4.97;;;3.10;;
70320;SDS011;61127;55.826;37.046;2023-04-26T08:36:17;6.00;;;3.30;;
70320;SDS011;61127;55.826;37.046;2023-04-26T08:38:43;5.85;;;3.45;;
70320;SDS011;61127;55.826;37.046;2023-04-26T08:41:11;5.03;;;3.50;;
70320;SDS011;61127;55.826;37.046;2023-04-26T08:43:39;4.20;;;3.15;;
70320;SDS011;61127;55.826;37.046;2023-04-26T08:46:06;3.78;;;3.13;;
70320;SDS011;61127;55.826;37.046;2023-04-26T08:48:36;5.85;;;2.95;;
70320;SDS011;61127;55.826;37.046;2023-04-26T08:51:02;4.20;;;3.00;;
70320;SDS011;61127;55.826;37.046;2023-04-26T08:53:33;6.20;;;2.30;;
70320;SDS011;61127;55.826;37.046;2023-04-26T08:56:00;3.03;;;2.50;;
70320;SDS011;61127;55.826;37.046;2023-04-26T08:58:29;3.10;;;2.30;;
70320;SDS011;61127;55.826;37.046;2023-04-26T09:00:56;3.47;;;2.28;;
70320;SDS011;61127;55.826;37.046;2023-04-26T09:03:24;2.80;;;1.80;;
70320;SDS011;61127;55.826;37.046;2023-04-26T09:05:51;2.10;;;1.60;;
70320;SDS011;61127;55.826;37.046;2023-04-26T09:08:18;1.95;;;1.30;;
70320;SDS011;61127;55.826;37.046;2023-04-26T09:10:45;2.53;;;1.10;;
70320;SDS011;61127;55.826;37.046;2023-04-26T09:13:11;1.67;;;1.40;;
70320;SDS011;61127;55.826;37.046;2023-04-26T09:15:39;2.17;;;1.38;;
70320;SDS011;61127;55.826;37.046;2023-04-26T09:18:16;3.00;;;1.30;;
70320;SDS011;61127;55.826;37.046;2023-04-26T09:20:43;2.88;;;1.30;;
70320;SDS011;61127;55.826;37.046;2023-04-26T09:23:09;1.92;;;1.10;;
70320;SDS011;61127;55.826;37.046;2023-04-26T09:25:36;2.03;;;1.20;;
70320;SDS011;61127;55.826;37.046;2023-04-26T09:28:02;2.22;;;1.20;;
70320;SDS011;61127;55.826;37.046;2023-04-26T09:30:43;2.30;;;1.10;;
70320;SDS011;61127;55.826;37.046;2023-04-26T09:33:09;1.60;;;1.40;;
70320;SDS011;61127;55.826;37.046;2023-04-26T09:35:38;3.22;;;1.10;;
70320;SDS011;61127;55.826;37.046;2023-04-26T09:38:14;4.38;;;3.20;;
70320;SDS011;61127;55.826;37.046;2023-04-26T09:40:43;1.67;;;1.52;;
70320;SDS011;61127;55.826;37.046;2023-04-26T09:43:14;2.00;;;1.53;;
70320;SDS011;61127;55.826;37.046;2023-04-26T09:45:48;1.40;;;1.15;;
70320;SDS011;61127;55.826;37.046;2023-04-26T09:50:43;1.52;;;0.93;;
70320;SDS011;61127;55.826;37.046;2023-04-26T09:55:56;1.40;;;0.90;;
70320;SDS011;61127;55.826;37.046;2023-04-26T09:58:31;1.30;;;0.80;;
70320;SDS011;61127;55.826;37.046;2023-04-26T10:00:58;0.90;;;0.90;;
70320;SDS011;61127;55.826;37.046;2023-04-26T10:03:25;1.38;;;1.00;;
70320;SDS011;61127;55.826;37.046;2023-04-26T10:05:51;2.08;;;1.10;;
70320;SDS011;61127;55.826;37.046;2023-04-26T10:08:18;1.73;;;0.90;;
70320;SDS011;61127;55.826;37.046;2023-04-26T10:10:44;1.45;;;1.05;;
70320;SDS011;61127;55.826;37.046;2023-04-26T10:13:12;1.73;;;1.13;;
70320;SDS011;61127;55.826;37.046;2023-04-26T10:15:40;0.93;;;0.80;;
70320;SDS011;61127;55.826;37.046;2023-04-26T10:18:07;2.05;;;1.10;;
70320;SDS011;61127;55.826;37.046;2023-04-26T10:20:33;2.27;;;1.27;;
70320;SDS011;61127;55.826;37.046;2023-04-26T10:23:05;3.33;;;1.48;;
70320;SDS011;61127;55.826;37.046;2023-04-26T10:25:41;6.53;;;3.75;;
70320;SDS011;61127;55.826;37.046;2023-04-26T10:28:07;4.97;;;2.33;;
70320;SDS011;61127;55.826;37.046;2023-04-26T10:30:34;2.87;;;1.37;;
70320;SDS011;61127;55.826;37.046;2023-04-26T10:33:19;2.03;;;1.40;;
70320;SDS011;61127;55.826;37.046;2023-04-26T10:36:08;2.28;;;2.00;;
70320;SDS011;61127;55.826;37.046;2023-04-26T10:38:36;2.05;;;1.50;;
70320;SDS011;61127;55.826;37.046;2023-04-26T10:43:53;3.67;;;2.87;;
70320;SDS011;61127;55.826;37.046;2023-04-26T10:46:32;6.07;;;3.80;;
70320;SDS011;61127;55.826;37.046;2023-04-26T10:49:13;4.18;;;2.88;;
70320;SDS011;61127;55.826;37.046;2023-04-26T10:51:40;2.85;;;1.50;;
70320;SDS011;61127;55.826;37.046;2023-04-26T10:54:33;3.58;;;2.35;;
70320;SDS011;61127;55.826;37.046;2023-04-26T10:57:16;3.00;;;2.20;;
70320;SDS011;61127;55.826;37.046;2023-04-26T11:02:44;2.35;;;1.60;;
70320;SDS011;61127;55.826;37.046;2023-04-26T11:05:40;3.00;;;1.50;;
70320;SDS011;61127;55.826;37.046;2023-04-26T11:08:16;4.25;;;1.40;;
70320;SDS011;61127;55.826;37.046;2023-04-26T11:10:44;3.47;;;1.30;;
70320;SDS011;61127;55.826;37.046;2023-04-26T11:13:16;3.10;;;1.60;;
70320;SDS011;61127;55.826;37.046;2023-04-26T11:15:44;3.58;;;1.50;;
70320;SDS011;61127;55.826;37.046;2023-04-26T11:18:10;2.45;;;1.60;;
70320;SDS011;61127;55.826;37.046;2023-04-26T11:20:37;6.88;;;4.60;;
70320;SDS011;61127;55.826;37.046;2023-04-26T11:23:03;8.80;;;5.87;;
70320;SDS011;61127;55.826;37.046;2023-04-26T11:25:33;6.95;;;3.70;;
70320;SDS011;61127;55.826;37.046;2023-04-26T11:27:59;2.60;;;2.13;;
70320;SDS011;61127;55.826;37.046;2023-04-26T11:30:33;3.03;;;1.70;;
70320;SDS011;61127;55.826;37.046;2023-04-26T11:32:59;3.15;;;2.00;;
70320;SDS011;61127;55.826;37.046;2023-04-26T11:35:26;4.77;;;2.30;;
70320;SDS011;61127;55.826;37.046;2023-04-26T11:37:58;2.92;;;2.08;;
70320;SDS011;61127;55.826;37.046;2023-04-26T11:40:29;2.47;;;1.70;;
70320;SDS011;61127;55.826;37.046;2023-04-26T11:43:14;2.20;;;1.70;;
70320;SDS011;61127;55.826;37.046;2023-04-26T11:45:41;3.60;;;1.77;;
70320;SDS011;61127;55.826;37.046;2023-04-26T11:48:09;2.27;;;1.73;;
70320;SDS011;61127;55.826;37.046;2023-04-26T11:50:37;3.03;;;1.70;;
70320;SDS011;61127;55.826;37.046;2023-04-26T11:53:05;4.93;;;1.80;;
70320;SDS011;61127;55.826;37.046;2023-04-26T11:55:34;2.60;;;2.00;;
70320;SDS011;61127;55.826;37.046;2023-04-26T11:58:10;2.65;;;2.03;;
70320;SDS011;61127;55.826;37.046;2023-04-26T12:00:53;3.47;;;1.70;;
70320;SDS011;61127;55.826;37.046;2023-04-26T12:03:27;4.55;;;1.30;;
70320;SDS011;61127;55.826;37.046;2023-04-26T12:05:54;2.15;;;1.48;;
70320;SDS011;61127;55.826;37.046;2023-04-26T12:08:26;2.00;;;1.50;;
70320;SDS011;61127;55.826;37.046;2023-04-26T12:10:52;1.60;;;1.50;;
70320;SDS011;61127;55.826;37.046;2023-04-26T12:13:18;4.23;;;2.00;;
70320;SDS011;61127;55.826;37.046;2023-04-26T12:15:45;2.53;;;1.80;;
70320;SDS011;61127;55.826;37.046;2023-04-26T12:18:13;1.67;;;1.58;;
70320;SDS011;61127;55.826;37.046;2023-04-26T12:20:39;4.70;;;2.10;;
70320;SDS011;61127;55.826;37.046;2023-04-26T12:23:07;2.97;;;1.80;;
70320;SDS011;61127;55.826;37.046;2023-04-26T12:25:35;2.50;;;1.70;;
70320;SDS011;61127;55.826;37.046;2023-04-26T12:28:03;4.63;;;2.03;;
70320;SDS011;61127;55.826;37.046;2023-04-26T12:30:32;3.75;;;2.17;;
70320;SDS011;61127;55.826;37.046;2023-04-26T12:33:01;3.33;;;2.00;;
70320;SDS011;61127;55.826;37.046;2023-04-26T12:35:28;4.05;;;2.10;;
70320;SDS011;61127;55.826;37.046;2023-04-26T12:37:54;6.77;;;2.27;;
70320;SDS011;61127;55.826;37.046;2023-04-26T12:40:22;4.18;;;2.40;;
70320;SDS011;61127;55.826;37.046;2023-04-26T12:42:49;4.90;;;2.60;;
70320;SDS011;61127;55.826;37.046;2023-04-26T12:45:16;3.42;;;2.60;;
70320;SDS011;61127;55.826;37.046;2023-04-26T12:47:43;4.32;;;2.33;;
70320;SDS011;61127;55.826;37.046;2023-04-26T12:50:11;4.00;;;3.00;;
70320;SDS011;61127;55.826;37.046;2023-04-26T12:52:38;4.65;;;2.70;;
70320;SDS011;61127;55.826;37.046;2023-04-26T12:55:06;3.55;;;2.80;;
70320;SDS011;61127;55.826;37.046;2023-04-26T12:57:33;4.47;;;3.00;;
70320;SDS011;61127;55.826;37.046;2023-04-26T13:00:02;5.95;;;3.05;;
70320;SDS011;61127;55.826;37.046;2023-04-26T13:02:32;4.70;;;2.67;;
70320;SDS011;61127;55.826;37.046;2023-04-26T13:05:02;4.53;;;2.58;;
70320;SDS011;61127;55.826;37.046;2023-04-26T13:07:36;5.05;;;2.38;;
70320;SDS011;61127;55.826;37.046;2023-04-26T13:10:05;3.30;;;2.20;;
70320;SDS011;61127;55.826;37.046;2023-04-26T13:12:32;3.53;;;2.45;;
70320;SDS011;61127;55.826;37.046;2023-04-26T13:14:59;4.80;;;2.10;;
70320;SDS011;61127;55.826;37.046;2023-04-26T13:17:26;4.93;;;2.05;;
70320;SDS011;61127;55.826;37.046;2023-04-26T13:19:53;3.90;;;1.98;;
70320;SDS011;61127;55.826;37.046;2023-04-26T13:22:19;2.47;;;2.28;;
70320;SDS011;61127;55.826;37.046;2023-04-26T13:24:46;2.63;;;1.80;;
70320;SDS011;61127;55.826;37.046;2023-04-26T13:27:12;4.60;;;2.10;;
70320;SDS011;61127;55.826;37.046;2023-04-26T13:29:39;2.75;;;1.90;;
70320;SDS011;61127;55.826;37.046;2023-04-26T13:32:08;2.13;;;1.92;;
70320;SDS011;61127;55.826;37.046;2023-04-26T13:34:34;3.05;;;2.00;;
70320;SDS011;61127;55.826;37.046;2023-04-26T13:37:01;3.63;;;2.08;;
70320;SDS011;61127;55.826;37.046;2023-04-26T13:39:29;2.73;;;1.80;;
70320;SDS011;61127;55.826;37.046;2023-04-26T13:41:56;2.67;;;2.10;;
70320;SDS011;61127;55.826;37.046;2023-04-26T13:44:24;4.30;;;1.80;;
70320;SDS011;61127;55.826;37.046;2023-04-26T13:46:52;5.97;;;1.90;;
70320;SDS011;61127;55.826;37.046;2023-04-26T13:49:20;2.03;;;1.70;;
70320;SDS011;61127;55.826;37.046;2023-04-26T13:51:47;2.43;;;1.80;;
70320;SDS011;61127;55.826;37.046;2023-04-26T13:54:14;2.72;;;1.70;;
70320;SDS011;61127;55.826;37.046;2023-04-26T13:56:41;2.80;;;1.70;;
70320;SDS011;61127;55.826;37.046;2023-04-26T13:59:07;2.13;;;1.75;;
70320;SDS011;61127;55.826;37.046;2023-04-26T14:01:33;3.57;;;1.70;;
70320;SDS011;61127;55.826;37.046;2023-04-26T14:04:00;2.95;;;2.00;;
70320;SDS011;61127;55.826;37.046;2023-04-26T14:06:26;3.65;;;1.70;;
70320;SDS011;61127;55.826;37.046;2023-04-26T14:08:53;3.72;;;1.90;;
70320;SDS011;61127;55.826;37.046;2023-04-26T14:11:19;3.65;;;2.00;;
70320;SDS011;61127;55.826;37.046;2023-04-26T14:13:45;2.83;;;1.80;;
70320;SDS011;61127;55.826;37.046;2023-04-26T14:16:11;3.72;;;2.05;;
70320;SDS011;61127;55.826;37.046;2023-04-26T14:18:37;2.42;;;2.00;;
70320;SDS011;61127;55.826;37.046;2023-04-26T14:21:10;4.28;;;2.10;;
70320;SDS011;61127;55.826;37.046;2023-04-26T14:23:37;4.32;;;1.98;;
70320;SDS011;61127;55.826;37.046;2023-04-26T14:26:03;2.47;;;1.97;;
70320;SDS011;61127;55.826;37.046;2023-04-26T14:28:29;3.85;;;1.92;;
70320;SDS011;61127;55.826;37.046;2023-04-26T14:30:56;3.28;;;1.88;;
70320;SDS011;61127;55.826;37.046;2023-04-26T14:33:22;5.72;;;1.90;;
70320;SDS011;61127;55.826;37.046;2023-04-26T14:35:48;3.10;;;2.00;;
70320;SDS011;61127;55.826;37.046;2023-04-26T14:38:14;2.38;;;1.80;;
70320;SDS011;61127;55.826;37.046;2023-04-26T14:40:41;2.58;;;1.83;;
70320;SDS011;61127;55.826;37.046;2023-04-26T14:43:06;5.63;;;2.10;;
70320;SDS011;61127;55.826;37.046;2023-04-26T14:45:32;3.10;;;1.87;;